createdAt,value
2018-10-19T00:02:19.501Z,21.07
2018-10-19T00:04:47.924Z,20.20
2018-10-19T00:07:16.455Z,22.50
2018-10-19T00:09:44.883Z,23.27
2018-10-19T00:12:13.347Z,22.57
2018-10-19T00:14:41.782Z,25.70
2018-10-19T00:17:10.309Z,23.67
2018-10-19T00:19:38.900Z,22.43
2018-10-19T00:22:07.717Z,22.83
2018-10-19T00:24:36.174Z,22.67
2018-10-19T00:27:04.878Z,23.57
2018-10-19T00:29:33.270Z,21.97
2018-10-19T00:32:01.714Z,22.50
2018-10-19T00:34:30.141Z,23.27
2018-10-19T00:36:58.599Z,24.60
2018-10-19T00:39:27.065Z,22.43
2018-10-19T00:41:55.523Z,25.13
2018-10-19T00:44:23.971Z,25.77
2018-10-19T00:46:52.454Z,22.57
2018-10-19T00:49:20.920Z,23.60
2018-10-19T00:51:49.409Z,24.07
2018-10-19T00:54:17.849Z,25.23
2018-10-19T00:56:46.321Z,23.73
2018-10-19T00:59:14.838Z,25.70
2018-10-19T01:01:43.263Z,26.27
2018-10-19T01:04:11.721Z,26.73
2018-10-19T01:06:40.197Z,26.00
2018-10-19T01:09:09.339Z,24.10
2018-10-19T01:11:37.690Z,27.33
2018-10-19T01:14:06.300Z,24.80
2018-10-19T01:16:34.838Z,26.67
2018-10-19T01:19:03.261Z,28.70
2018-10-19T01:21:31.701Z,24.87
2018-10-19T01:24:00.133Z,23.40
2018-10-19T01:26:28.594Z,25.97
2018-10-19T01:28:57.036Z,28.17
2018-10-19T01:31:25.473Z,29.00
2018-10-19T01:33:53.942Z,25.10
2018-10-19T01:36:26.632Z,26.83
2018-10-19T01:38:55.067Z,26.90
2018-10-19T01:41:23.531Z,28.70
2018-10-19T01:43:52.004Z,25.60
2018-10-19T01:46:20.492Z,23.97
2018-10-19T01:48:48.920Z,23.90
2018-10-19T01:51:17.365Z,26.73
2018-10-19T01:53:45.830Z,26.90
2018-10-19T01:56:14.289Z,27.10
2018-10-19T01:58:42.744Z,25.27
2018-10-19T02:01:11.177Z,26.60
2018-10-19T02:03:39.707Z,26.40
2018-10-19T02:06:08.127Z,27.00
2018-10-19T02:08:36.594Z,26.53
2018-10-19T02:11:05.331Z,28.80
2018-10-19T02:13:33.801Z,26.33
2018-10-19T02:16:02.273Z,25.00
2018-10-19T02:18:30.708Z,29.20
2018-10-19T02:20:59.187Z,29.63
2018-10-19T02:23:27.674Z,29.40
2018-10-19T02:25:56.117Z,30.47
2018-10-19T02:28:24.580Z,30.17
2018-10-19T02:30:53.043Z,31.00
2018-10-19T02:33:21.607Z,29.90
2018-10-19T02:35:49.943Z,30.87
2018-10-19T02:38:18.407Z,33.97
2018-10-19T02:40:46.868Z,31.60
2018-10-19T02:43:15.268Z,33.00
2018-10-19T02:45:43.726Z,30.20
2018-10-19T02:48:12.596Z,33.20
2018-10-19T02:50:41.117Z,34.60
2018-10-19T02:53:09.615Z,32.50
2018-10-19T02:55:38.062Z,33.80
2018-10-19T02:58:06.534Z,31.03
2018-10-19T03:00:35.001Z,30.20
2018-10-19T03:03:03.514Z,31.40
2018-10-19T03:05:31.973Z,33.17
2018-10-19T03:08:00.446Z,34.20
2018-10-19T03:10:28.883Z,32.67
2018-10-19T03:12:57.358Z,34.30
2018-10-19T03:15:25.813Z,35.47
2018-10-19T03:17:54.290Z,37.00
2018-10-19T03:20:22.747Z,34.83
2018-10-19T03:22:51.191Z,36.23
2018-10-19T03:25:19.657Z,35.57
2018-10-19T03:27:48.133Z,34.97
2018-10-19T03:30:16.560Z,36.70
2018-10-19T03:32:45.017Z,34.13
2018-10-19T03:35:13.554Z,37.60
2018-10-19T03:37:41.986Z,34.67
2018-10-19T03:40:10.446Z,35.80
2018-10-19T03:42:38.909Z,36.70
2018-10-19T03:45:07.797Z,33.80
2018-10-19T03:47:36.230Z,27.40
2018-10-19T03:50:04.833Z,27.20
2018-10-19T03:52:33.571Z,26.67
2018-10-19T03:55:02.081Z,26.90
2018-10-19T03:57:30.518Z,23.43
2018-10-19T03:59:58.959Z,25.13
2018-10-19T04:02:27.436Z,26.50
2018-10-19T04:04:55.940Z,26.60
2018-10-19T04:07:24.386Z,27.00
2018-10-19T04:09:52.847Z,27.57
2018-10-19T04:12:21.286Z,27.43
2018-10-19T04:14:49.715Z,27.53
2018-10-19T04:17:18.251Z,26.80
2018-10-19T04:19:46.663Z,24.77
2018-10-19T04:22:15.141Z,26.10
2018-10-19T04:24:43.596Z,26.57
2018-10-19T04:27:12.181Z,24.90
2018-10-19T04:29:40.553Z,25.57
2018-10-19T04:32:09.003Z,22.30
2018-10-19T04:34:37.490Z,25.77
2018-10-19T04:37:06.804Z,25.20
2018-10-19T04:39:35.593Z,25.60
2018-10-19T04:42:05.084Z,25.97
2018-10-19T04:44:33.434Z,29.50
2018-10-19T04:47:02.077Z,27.30
2018-10-19T04:49:30.448Z,28.17
2018-10-19T04:51:58.957Z,27.67
2018-10-19T04:54:27.451Z,26.80
2018-10-19T04:56:55.918Z,27.10
2018-10-19T04:59:24.403Z,27.80
2018-10-19T05:01:52.882Z,27.33
2018-10-19T05:04:21.423Z,29.83
2018-10-19T05:06:50.206Z,28.50
2018-10-19T05:09:18.481Z,29.30
2018-10-19T05:11:46.927Z,27.70
2018-10-19T05:14:15.454Z,26.17
2018-10-19T05:16:43.878Z,28.40
2018-10-19T05:19:12.347Z,27.43
2018-10-19T05:21:40.801Z,29.70
2018-10-19T05:24:09.291Z,28.43
2018-10-19T05:26:37.770Z,31.87
2018-10-19T05:29:06.796Z,33.60
2018-10-19T05:31:35.219Z,32.43
2018-10-19T05:34:03.722Z,31.30
2018-10-19T05:36:32.183Z,32.33
2018-10-19T05:39:00.622Z,34.03
2018-10-19T05:41:29.123Z,30.90
2018-10-19T05:43:58.028Z,29.80
2018-10-19T05:46:26.497Z,31.00
2018-10-19T05:48:54.934Z,29.87
2018-10-19T05:51:23.427Z,31.27
2018-10-19T05:53:52.045Z,29.57
2018-10-19T05:56:20.531Z,31.17
2018-10-19T05:58:48.981Z,29.40
2018-10-19T06:01:17.479Z,28.10
2018-10-19T06:03:45.927Z,28.90
2018-10-19T06:06:14.383Z,28.00
2018-10-19T06:08:42.850Z,30.37
2018-10-19T06:11:11.404Z,31.80
2018-10-19T06:13:39.853Z,32.03
2018-10-19T06:16:08.367Z,33.80
2018-10-19T06:18:36.824Z,30.90
2018-10-19T06:21:05.545Z,31.50
2018-10-19T06:23:34.193Z,30.47
2018-10-19T06:26:02.868Z,30.53
2018-10-19T06:28:31.701Z,27.10
2018-10-19T06:31:00.179Z,23.40
2018-10-19T06:33:28.671Z,22.07
2018-10-19T06:35:57.134Z,20.27
2018-10-19T06:38:25.622Z,21.63
2018-10-19T06:40:54.171Z,19.83
2018-10-19T06:43:22.610Z,18.00
2018-10-19T06:45:51.079Z,19.63
2018-10-19T06:48:19.534Z,21.87
2018-10-19T06:50:48.012Z,24.40
2018-10-19T06:53:16.519Z,19.77
2018-10-19T06:55:45.045Z,21.90
2018-10-19T06:58:13.847Z,24.80
2018-10-19T07:00:42.324Z,21.63
2018-10-19T07:03:10.850Z,21.73
2018-10-19T07:05:39.380Z,23.27
2018-10-19T07:08:07.904Z,23.27
2018-10-19T07:10:36.346Z,23.33
2018-10-19T07:13:05.107Z,23.50
2018-10-19T07:15:33.533Z,22.90
2018-10-19T07:18:01.967Z,23.40
2018-10-19T07:20:30.435Z,21.40
2018-10-19T07:22:58.957Z,22.57
2018-10-19T07:25:27.365Z,23.73
2018-10-19T07:27:55.823Z,21.10
2018-10-19T07:30:24.346Z,24.20
2018-10-19T07:32:52.823Z,21.97
2018-10-19T07:35:21.271Z,22.27
2018-10-19T07:37:50.878Z,23.33
2018-10-19T07:40:19.285Z,32.00
2018-10-19T07:42:47.818Z,21.80
2018-10-19T07:45:16.378Z,22.43
2018-10-19T07:47:44.970Z,23.03
2018-10-19T07:50:13.517Z,23.63
2018-10-19T07:52:41.929Z,22.20
2018-10-19T07:55:11.536Z,20.77
2018-10-19T07:57:40.071Z,20.90
2018-10-19T08:00:09.847Z,19.60
2018-10-19T08:02:38.254Z,19.80
2018-10-19T08:05:07.661Z,18.53
2018-10-19T08:07:36.042Z,18.50
2018-10-19T08:10:05.342Z,17.50
2018-10-19T08:12:33.789Z,20.70
2018-10-19T08:15:02.242Z,17.53
2018-10-19T08:17:30.699Z,20.43
2018-10-19T08:19:59.178Z,20.10
2018-10-19T08:22:27.652Z,20.90
2018-10-19T08:24:56.068Z,19.90
2018-10-19T08:27:24.589Z,20.80
2018-10-19T08:29:52.981Z,20.60
2018-10-19T08:32:21.542Z,19.00
2018-10-19T08:34:50.006Z,21.20
2018-10-19T08:37:18.481Z,21.33
2018-10-19T08:39:46.905Z,23.20
2018-10-19T08:42:15.369Z,20.50
2018-10-19T08:44:43.807Z,24.63
2018-10-19T08:47:12.318Z,25.70
2018-10-19T08:49:40.720Z,25.20
2018-10-19T08:52:09.228Z,27.47
2018-10-19T08:54:37.776Z,26.93
2018-10-19T08:57:06.474Z,25.60
2018-10-19T08:59:34.867Z,26.73
2018-10-19T09:02:03.307Z,26.20
2018-10-19T09:04:31.762Z,26.80
2018-10-19T09:07:00.209Z,28.40
2018-10-19T09:09:28.758Z,27.93
2018-10-19T09:11:57.207Z,26.67
2018-10-19T09:14:56.998Z,27.70
2018-10-19T09:17:25.466Z,28.93
2018-10-19T09:19:54.210Z,27.90
2018-10-19T09:22:22.684Z,27.60
2018-10-19T09:24:51.588Z,28.60
2018-10-19T09:27:20.204Z,30.97
2018-10-19T09:29:48.715Z,26.37
2018-10-19T09:32:17.628Z,29.87
2018-10-19T09:34:46.059Z,32.60
2018-10-19T09:37:14.783Z,30.80
2018-10-19T09:39:43.222Z,32.77
2018-10-19T09:42:12.033Z,34.27
2018-10-19T09:44:40.742Z,33.80
2018-10-19T09:47:09.504Z,34.00
2018-10-19T09:49:37.853Z,32.27
2018-10-19T09:52:06.387Z,35.17
2018-10-19T09:54:34.841Z,38.57
2018-10-19T09:57:03.468Z,39.30
2018-10-19T09:59:33.312Z,43.70
2018-10-19T10:02:01.798Z,39.73
2018-10-19T10:04:30.302Z,38.47
2018-10-19T10:06:58.765Z,39.33
2018-10-19T10:09:28.047Z,41.17
2018-10-19T10:11:56.511Z,39.40
2018-10-19T10:14:24.967Z,42.47
2018-10-19T10:16:53.432Z,43.00
2018-10-19T10:19:21.900Z,44.80
2018-10-19T10:21:50.358Z,43.43
2018-10-19T10:24:18.847Z,41.50
2018-10-19T10:26:47.889Z,41.23
2018-10-19T10:29:16.317Z,44.10
2018-10-19T10:31:44.821Z,39.77
2018-10-19T10:34:13.362Z,41.63
2018-10-19T10:36:41.803Z,37.80
2018-10-19T10:39:13.034Z,39.60
2018-10-19T10:41:41.363Z,40.73
2018-10-19T10:44:09.890Z,38.03
2018-10-19T10:46:38.492Z,39.00
2018-10-19T10:49:07.052Z,37.27
2018-10-19T10:51:35.426Z,37.37
2018-10-19T10:54:04.195Z,38.07
2018-10-19T10:56:32.671Z,44.03
2018-10-19T10:59:01.139Z,47.07
2018-10-19T11:01:29.606Z,44.77
2018-10-19T11:03:58.116Z,42.03
2018-10-19T11:06:26.543Z,42.97
2018-10-19T11:08:55.038Z,40.73
2018-10-19T11:11:23.488Z,42.10
2018-10-19T11:13:51.970Z,42.10
2018-10-19T11:16:20.552Z,42.83
2018-10-19T11:18:49.555Z,40.97
2018-10-19T11:21:18.040Z,38.80
2018-10-19T11:23:46.487Z,40.37
2018-10-19T11:26:15.002Z,35.43
2018-10-19T11:28:43.446Z,37.83
2018-10-19T11:31:11.940Z,37.50
2018-10-19T11:33:40.293Z,37.57
2018-10-19T11:36:08.727Z,35.40
2018-10-19T11:38:37.214Z,33.47
2018-10-19T11:41:05.810Z,36.00
2018-10-19T11:43:34.302Z,35.93
2018-10-19T11:46:02.816Z,29.83
2018-10-19T11:48:32.230Z,29.70
2018-10-19T11:51:00.914Z,29.17
2018-10-19T11:53:29.375Z,34.80
2018-10-19T11:55:57.818Z,35.80
2018-10-19T11:58:26.289Z,36.40
2018-10-19T12:00:54.734Z,30.83
2018-10-19T12:03:23.179Z,33.87
2018-10-19T12:05:51.598Z,32.43
2018-10-19T12:08:20.046Z,37.50
2018-10-19T12:10:48.505Z,32.03
2018-10-19T12:13:16.941Z,33.87
2018-10-19T12:15:45.375Z,34.57
2018-10-19T12:18:13.825Z,33.60
2018-10-19T12:20:42.270Z,34.83
2018-10-19T12:23:10.706Z,28.40
2018-10-19T12:25:39.143Z,30.60
2018-10-19T12:28:07.608Z,29.33
2018-10-19T12:30:36.042Z,29.60
2018-10-19T12:33:04.862Z,29.43
2018-10-19T12:35:33.669Z,28.50
2018-10-19T12:38:02.065Z,26.30
2018-10-19T12:40:30.501Z,23.13
2018-10-19T12:42:59.034Z,25.57
2018-10-19T12:46:43.702Z,28.00
2018-10-19T12:49:13.579Z,25.60
2018-10-19T12:51:42.070Z,26.77
2018-10-19T12:54:10.659Z,26.40
2018-10-19T12:56:39.112Z,24.20
2018-10-19T12:59:07.835Z,25.93
2018-10-19T13:01:36.297Z,28.50
2018-10-19T13:04:05.297Z,25.33
2018-10-19T13:06:33.823Z,26.23
2018-10-19T13:09:02.423Z,24.30
2018-10-19T13:11:30.809Z,26.97
2018-10-19T13:13:59.228Z,25.73
2018-10-19T13:16:27.691Z,23.53
2018-10-19T13:18:56.190Z,24.17
2018-10-19T13:21:24.591Z,25.07
2018-10-19T13:23:53.053Z,25.50
2018-10-19T13:26:21.490Z,25.50
2018-10-19T13:28:49.946Z,25.90
2018-10-19T13:31:18.525Z,25.80
2018-10-19T13:33:46.941Z,24.53
2018-10-19T13:36:15.438Z,24.90
2018-10-19T13:38:43.814Z,21.93
2018-10-19T13:41:12.252Z,25.73
2018-10-19T13:43:41.469Z,25.60
2018-10-19T13:46:09.911Z,27.47
2018-10-19T13:48:38.354Z,24.00
2018-10-19T13:51:06.871Z,22.87
2018-10-19T13:53:35.321Z,23.80
2018-10-19T13:56:03.793Z,22.03
2018-10-19T13:58:32.333Z,24.80
2018-10-19T14:01:00.697Z,22.67
2018-10-19T14:03:29.101Z,23.10
2018-10-19T14:05:57.566Z,23.63
2018-10-19T14:08:25.987Z,22.80
2018-10-19T14:10:54.478Z,22.70
2018-10-19T14:13:22.980Z,22.30
2018-10-19T14:15:51.381Z,21.10
2018-10-19T14:18:19.842Z,19.60
2018-10-19T14:20:48.275Z,22.03
2018-10-19T14:23:16.789Z,21.80
2018-10-19T14:25:45.185Z,24.60
2018-10-19T14:28:13.679Z,21.90
2018-10-19T14:30:42.101Z,21.50
2018-10-19T14:33:10.617Z,22.57
2018-10-19T14:35:39.034Z,22.63
2018-10-19T14:38:07.485Z,21.07
2018-10-19T14:40:35.897Z,21.50
2018-10-19T14:43:04.419Z,20.80
2018-10-19T14:45:32.861Z,17.80
2018-10-19T14:48:01.307Z,21.57
2018-10-19T14:50:29.751Z,22.40
2018-10-19T14:52:58.191Z,24.60
2018-10-19T14:55:26.649Z,22.17
2018-10-19T14:57:55.081Z,22.70
2018-10-19T15:00:23.553Z,20.50
2018-10-19T15:02:51.986Z,20.20
2018-10-19T15:05:20.598Z,20.57
2018-10-19T15:07:49.076Z,19.97
2018-10-19T15:10:20.717Z,20.93
2018-10-19T15:12:48.981Z,18.87
2018-10-19T15:15:21.789Z,19.63
2018-10-19T15:17:50.233Z,20.67
2018-10-19T15:20:18.955Z,21.83
2018-10-19T15:22:47.704Z,22.90
2018-10-19T15:25:16.201Z,21.53
2018-10-19T15:27:45.800Z,24.00
2018-10-19T15:30:15.957Z,22.33
2018-10-19T15:32:44.365Z,20.43
2018-10-19T15:35:12.834Z,21.90
2018-10-19T15:37:41.546Z,20.73
2018-10-19T15:40:10.760Z,17.90
2018-10-19T15:42:39.562Z,16.87
2018-10-19T15:45:09.705Z,15.63
2018-10-19T15:47:38.124Z,19.23
2018-10-19T15:50:07.266Z,17.60
2018-10-19T15:52:35.737Z,19.00
2018-10-19T15:55:04.310Z,20.20
2018-10-19T15:57:32.775Z,20.03
2018-10-19T16:00:01.301Z,20.10
2018-10-19T16:02:29.711Z,21.83
2018-10-19T16:04:58.172Z,20.40
2018-10-19T16:07:26.631Z,19.00
2018-10-19T16:09:55.052Z,18.83
2018-10-19T16:12:23.498Z,17.37
2018-10-19T16:14:51.937Z,20.87
2018-10-19T16:17:20.466Z,20.47
2018-10-19T16:19:48.903Z,18.97
2018-10-19T16:22:17.325Z,21.10
2018-10-19T16:24:45.778Z,19.70
2018-10-19T16:27:14.373Z,19.60
2018-10-19T16:29:42.666Z,20.90
2018-10-19T16:32:11.134Z,19.87
2018-10-19T16:34:39.744Z,19.33
2018-10-19T16:37:08.169Z,22.00
2018-10-19T16:39:36.675Z,19.57
2018-10-19T16:42:05.293Z,20.03
2018-10-19T16:44:33.704Z,16.07
2018-10-19T16:47:02.138Z,16.63
2018-10-19T16:49:30.576Z,19.53
2018-10-19T16:51:59.083Z,18.70
2018-10-19T16:54:27.538Z,18.70
2018-10-19T16:56:56.055Z,16.60
2018-10-19T16:59:24.445Z,18.57
2018-10-19T17:01:52.897Z,21.30
2018-10-19T17:04:21.330Z,18.90
2018-10-19T17:06:49.794Z,20.20
2018-10-19T17:09:18.268Z,21.40
2018-10-19T17:11:46.633Z,21.37
2018-10-19T17:14:15.064Z,20.47
2018-10-19T17:16:43.543Z,20.57
2018-10-19T17:19:12.046Z,20.00
2018-10-19T17:21:40.450Z,21.90
2018-10-19T17:24:08.919Z,22.70
2018-10-19T17:26:37.321Z,21.77
2018-10-19T17:29:05.811Z,19.70
2018-10-19T17:31:34.364Z,22.00
2018-10-19T17:34:02.680Z,23.50
2018-10-19T17:36:31.133Z,25.13
2018-10-19T17:38:59.599Z,23.60
2018-10-19T17:41:28.044Z,24.47
2018-10-19T17:43:56.496Z,21.47
2018-10-19T17:46:24.949Z,22.90
2018-10-19T17:48:53.446Z,22.60
2018-10-19T17:51:21.850Z,25.83
2018-10-19T17:53:50.297Z,24.23
2018-10-19T17:56:18.722Z,25.63
2018-10-19T17:58:47.167Z,21.70
2018-10-19T18:01:15.598Z,21.93
2018-10-19T18:03:44.029Z,22.50
2018-10-19T18:06:12.526Z,21.40
2018-10-19T18:08:41.037Z,24.87
2018-10-19T18:11:09.527Z,23.17
2018-10-19T18:13:37.901Z,24.40
2018-10-19T18:16:06.377Z,26.70
2018-10-19T18:18:34.768Z,25.40
2018-10-19T18:21:03.252Z,20.40
2018-10-19T18:23:31.643Z,24.43
2018-10-19T18:26:00.128Z,25.97
2018-10-19T18:28:28.571Z,27.17
2018-10-19T18:30:56.994Z,27.13
2018-10-19T18:33:25.414Z,24.97
2018-10-19T18:35:53.849Z,26.50
2018-10-19T18:38:22.310Z,27.50
2018-10-19T18:40:50.731Z,26.13
2018-10-19T18:43:19.166Z,28.53
2018-10-19T18:45:47.625Z,25.47
2018-10-19T18:48:16.082Z,26.70
2018-10-19T18:50:44.594Z,27.40
2018-10-19T18:53:13.094Z,26.50
2018-10-19T18:55:41.513Z,26.93
2018-10-19T18:58:09.985Z,25.73
2018-10-19T19:00:38.469Z,23.20
2018-10-19T19:03:06.934Z,27.23
2018-10-19T19:05:35.419Z,26.10
2018-10-19T19:08:03.918Z,26.20
2018-10-19T19:10:32.354Z,24.63
2018-10-19T19:13:05.934Z,23.10
2018-10-19T19:15:34.404Z,24.73
2018-10-19T19:18:02.833Z,25.77
2018-10-19T19:20:31.425Z,23.67
2018-10-19T19:22:59.897Z,25.13
2018-10-19T19:25:33.559Z,25.70
2018-10-19T19:28:01.977Z,24.60
2018-10-19T19:30:30.472Z,27.67
2018-10-19T19:33:04.186Z,22.57
2018-10-19T19:35:32.648Z,26.17
2018-10-19T19:38:01.104Z,26.80
2018-10-19T19:40:33.765Z,23.93
2018-10-19T19:43:02.235Z,24.17
2018-10-19T19:45:30.688Z,24.67
2018-10-19T19:48:04.334Z,26.23
2018-10-19T19:50:32.776Z,27.30
2018-10-19T19:53:01.284Z,26.23
2018-10-19T19:55:29.684Z,24.00
2018-10-19T19:57:58.994Z,26.80
2018-10-19T20:00:27.434Z,27.17
2018-10-19T20:02:55.871Z,26.20
2018-10-19T20:05:24.298Z,25.97
2018-10-19T20:07:53.605Z,29.30
2018-10-19T20:10:22.042Z,30.30
2018-10-19T20:12:50.474Z,24.73
2018-10-19T20:15:19.998Z,26.60
2018-10-19T20:17:48.445Z,30.30
2018-10-19T20:20:16.930Z,31.30
2018-10-19T20:22:45.358Z,27.63
2018-10-19T20:25:13.791Z,29.77
2018-10-19T20:27:42.222Z,24.60
2018-10-19T20:30:12.342Z,29.90
2018-10-19T20:32:40.794Z,31.13
2018-10-19T20:35:09.810Z,34.53
2018-10-19T20:37:38.165Z,29.30
2018-10-19T20:40:06.645Z,31.87
2018-10-19T20:42:35.109Z,33.20
2018-10-19T20:45:03.843Z,34.33
2018-10-19T20:47:32.268Z,29.87
2018-10-19T20:50:00.722Z,31.00
2018-10-19T20:52:29.178Z,33.73
2018-10-19T20:54:57.954Z,29.67
2018-10-19T20:57:26.393Z,32.33
2018-10-19T20:59:54.853Z,30.80
2018-10-19T21:02:23.311Z,29.97
2018-10-19T21:04:51.752Z,35.70
2018-10-19T21:07:20.288Z,37.27
2018-10-19T21:09:48.777Z,34.00
2018-10-19T21:12:17.249Z,38.13
2018-10-19T21:14:48.506Z,37.00
2018-10-19T21:17:17.151Z,39.50
2018-10-19T21:19:45.483Z,41.63
2018-10-19T21:22:13.936Z,31.60
2018-10-19T21:24:49.079Z,36.43
2018-10-19T21:27:17.513Z,40.20
2018-10-19T21:29:46.118Z,36.50
2018-10-19T21:32:14.517Z,35.83
2018-10-19T21:34:42.969Z,32.80
2018-10-19T21:37:11.401Z,39.23
2018-10-19T21:39:39.839Z,38.63
2018-10-19T21:42:08.279Z,36.00
2018-10-19T21:44:36.698Z,37.53
2018-10-19T21:47:05.195Z,35.40
2018-10-19T21:49:33.636Z,41.00
2018-10-19T21:52:02.142Z,39.03
2018-10-19T21:54:30.585Z,39.53
2018-10-19T21:56:59.055Z,38.63
2018-10-19T21:59:27.510Z,38.70
2018-10-19T22:01:55.988Z,38.50
2018-10-19T22:04:24.451Z,37.83
2018-10-19T22:06:52.901Z,40.67
2018-10-19T22:09:21.338Z,37.57
2018-10-19T22:11:49.751Z,35.97
2018-10-19T22:14:18.177Z,32.10
2018-10-19T22:16:46.601Z,36.03
2018-10-19T22:19:15.067Z,37.33
2018-10-19T22:21:43.506Z,36.23
2018-10-19T22:24:11.941Z,37.43
2018-10-19T22:26:40.366Z,39.47
2018-10-19T22:29:08.996Z,37.90
2018-10-19T22:31:37.405Z,33.50
2018-10-19T22:34:05.877Z,36.73
2018-10-19T22:36:34.301Z,35.90
2018-10-19T22:39:02.809Z,36.93
2018-10-19T22:41:31.242Z,37.17
2018-10-19T22:43:59.683Z,35.73
2018-10-19T22:46:28.168Z,35.67
2018-10-19T22:48:56.723Z,34.83
2018-10-19T22:51:25.144Z,37.10
2018-10-19T22:53:53.578Z,38.77
2018-10-19T22:56:22.031Z,40.20
2018-10-19T22:58:50.475Z,39.03
2018-10-19T23:01:18.918Z,30.10
2018-10-19T23:03:47.406Z,39.70
2018-10-19T23:06:15.807Z,40.80
2018-10-19T23:08:44.231Z,38.23
2018-10-19T23:11:12.740Z,38.20
2018-10-19T23:13:41.217Z,38.67
2018-10-19T23:16:09.644Z,38.37
2018-10-19T23:18:38.106Z,36.97
2018-10-19T23:21:06.633Z,38.90
2018-10-19T23:23:35.085Z,39.43
2018-10-19T23:26:03.562Z,35.23
2018-10-19T23:28:32.034Z,38.83
2018-10-19T23:31:00.530Z,32.83
2018-10-19T23:33:28.934Z,38.33
2018-10-19T23:35:57.382Z,37.10
2018-10-19T23:38:25.843Z,39.90
2018-10-19T23:40:54.288Z,33.23
2018-10-19T23:43:22.720Z,37.97
2018-10-19T23:45:51.191Z,31.33
2018-10-19T23:48:19.653Z,39.17
2018-10-19T23:50:48.111Z,35.90
2018-10-19T23:53:16.666Z,35.83
2018-10-19T23:55:45.032Z,37.87
2018-10-19T23:58:13.476Z,39.17
